Time;durP1;ratioP1;P1;durP2;ratioP2;P2;SDS_P1;SDS_P2;PMS_P1;PMS_P2;Temp;Humidity;BMP_temperature;BMP_pressure;BME280_temperature;BME280_humidity;BME280_pressure;Samples;Min_cycle;Max_cycle;Signal;HPM_P1;HPM_P2
2021/04/29 00:01:58;;;;;;;68.33;25.97;;;;;;;2.78;53.54;98137.88;2178506;81;21708;-76
2021/04/29 00:05:01;;;;;;;58.40;21.73;;;;;;;2.74;53.59;98133.75;2178703;81;21284;-76
2021/04/29 00:08:03;;;;;;;46.85;17.52;;;;;;;2.74;53.90;98133.75;2178470;81;21634;-77
2021/04/29 00:11:05;;;;;;;53.10;19.35;;;;;;;2.75;54.47;98130.70;2178469;81;21273;-76
2021/04/29 00:14:07;;;;;;;47.00;17.77;;;;;;;2.68;54.54;98124.08;2178413;81;21272;-77
2021/04/29 00:17:09;;;;;;;49.77;20.57;;;;;;;2.59;54.64;98127.42;2178446;82;21292;-77
2021/04/29 00:20:11;;;;;;;50.95;17.98;;;;;;;2.52;54.76;98128.56;2178835;81;21285;-76
2021/04/29 00:23:13;;;;;;;51.25;21.23;;;;;;;2.23;55.50;98132.30;2178568;82;21285;-77
2021/04/29 00:26:15;;;;;;;47.05;17.27;;;;;;;2.18;56.64;98129.86;2178576;81;21297;-77
2021/04/29 00:29:17;;;;;;;50.75;18.70;;;;;;;2.21;55.83;98130.20;2178697;81;21126;-77
2021/04/29 00:32:19;;;;;;;42.90;15.65;;;;;;;2.15;56.29;98129.98;2178526;82;21705;-77
2021/04/29 00:35:21;;;;;;;42.85;16.27;;;;;;;1.99;56.60;98129.72;2148359;82;21300;-76
2021/04/29 00:38:24;;;;;;;46.35;15.40;;;;;;;1.94;56.71;98132.94;2141852;82;21716;-77
2021/04/29 00:41:26;;;;;;;36.38;14.30;;;;;;;1.97;56.52;98135.41;2171614;82;21301;-76
2021/04/29 00:44:27;;;;;;;40.67;14.75;;;;;;;1.97;56.58;98129.38;2171375;82;21150;-76
2021/04/29 00:47:29;;;;;;;46.58;17.00;;;;;;;2.00;56.73;98137.88;2171396;82;21285;-77
2021/04/29 00:50:31;;;;;;;41.20;15.95;;;;;;;1.97;56.69;98131.53;2171388;82;21273;-76
2021/04/29 00:53:33;;;;;;;38.65;14.93;;;;;;;1.85;58.14;98136.72;2171607;82;21285;-76
2021/04/29 00:56:35;;;;;;;36.90;14.40;;;;;;;1.79;57.74;98135.63;2171390;82;21269;-76
2021/04/29 00:59:37;;;;;;;40.75;15.55;;;;;;;1.67;58.49;98144.67;2171746;82;21107;-77
2021/04/29 01:02:39;;;;;;;45.85;14.73;;;;;;;1.68;58.17;98139.04;2171393;82;21268;-76
2021/04/29 01:05:41;;;;;;;37.75;14.50;;;;;;;1.65;57.96;98140.02;2171363;82;21733;-77
2021/04/29 01:08:43;;;;;;;39.73;14.53;;;;;;;1.57;58.18;98140.73;2171443;82;21288;-77
2021/04/29 01:11:45;;;;;;;39.48;14.15;;;;;;;1.50;58.95;98141.39;2171367;82;21300;-76
2021/04/29 01:14:47;;;;;;;48.20;17.92;;;;;;;1.42;59.69;98147.27;2171321;82;21281;-77
2021/04/29 01:17:49;;;;;;;40.00;17.02;;;;;;;1.24;58.78;98149.22;2171469;82;21289;-76
2021/04/29 01:20:51;;;;;;;50.73;20.00;;;;;;;1.22;59.40;98151.82;2171363;82;21277;-76
2021/04/29 01:23:53;;;;;;;37.83;14.50;;;;;;;1.19;60.58;98150.21;2171362;82;21150;-77
2021/04/29 01:26:55;;;;;;;35.35;14.18;;;;;;;1.00;59.94;98143.50;2171426;82;21289;-76
2021/04/29 01:29:57;;;;;;;36.15;14.25;;;;;;;0.96;60.21;98144.52;2171828;82;21183;-76
2021/04/29 01:32:59;;;;;;;38.90;13.60;;;;;;;0.95;59.80;98147.99;2141780;82;21269;-77
2021/04/29 01:36:01;;;;;;;41.33;16.85;;;;;;;0.96;59.68;98148.40;2142836;82;21111;-76
2021/04/29 01:39:03;;;;;;;77.40;31.15;;;;;;;0.92;60.07;98146.80;2174074;82;21276;-77
2021/04/29 01:42:05;;;;;;;40.30;15.95;;;;;;;0.98;59.92;98145.30;2174088;81;22008;-76
2021/04/29 01:45:07;;;;;;;73.83;29.00;;;;;;;1.14;60.04;98151.27;2174320;82;21138;-76
2021/04/29 01:48:09;;;;;;;72.12;29.48;;;;;;;1.17;59.97;98141.65;2173979;82;21277;-77
2021/04/29 01:51:11;;;;;;;77.75;31.02;;;;;;;1.19;60.02;98140.30;2144313;82;21273;-77
2021/04/29 01:54:14;;;;;;;93.50;35.60;;;;;;;1.18;60.21;98140.77;2173881;82;21349;-77
2021/04/29 01:57:15;;;;;;;74.72;28.05;;;;;;;1.23;60.81;98138.48;2174048;82;21317;-77
2021/04/29 02:00:17;;;;;;;66.07;25.72;;;;;;;1.19;60.58;98132.55;2174204;82;21277;-77
2021/04/29 02:03:19;;;;;;;63.35;24.23;;;;;;;1.15;61.02;98133.55;2173927;82;21119;-77
2021/04/29 02:06:21;;;;;;;47.08;19.30;;;;;;;1.20;61.13;98132.95;2173941;82;21297;-77
2021/04/29 02:09:23;;;;;;;50.12;18.67;;;;;;;1.30;60.85;98125.28;2174039;82;21281;-76
2021/04/29 02:12:25;;;;;;;76.90;29.15;;;;;;;1.17;60.87;98136.48;2174155;82;21288;-77
2021/04/29 02:15:27;;;;;;;71.53;25.97;;;;;;;1.14;61.32;98131.42;2173884;82;21281;-76
2021/04/29 02:18:29;;;;;;;44.53;17.52;;;;;;;1.18;61.13;98122.68;2144461;82;21300;-77
2021/04/29 02:21:31;;;;;;;55.78;21.30;;;;;;;1.28;61.65;98122.35;2173928;82;21269;-76
2021/04/29 02:24:33;;;;;;;44.83;17.87;;;;;;;1.27;61.49;98118.10;2173999;82;21308;-76
2021/04/29 02:27:35;;;;;;;47.35;18.27;;;;;;;1.19;61.46;98119.64;2144704;82;21709;-76
2021/04/29 02:30:37;;;;;;;50.48;18.70;;;;;;;1.24;61.63;98119.05;2174101;82;21305;-77
2021/04/29 02:33:39;;;;;;;49.95;19.60;;;;;;;1.16;61.65;98122.33;2174263;82;21308;-77
2021/04/29 02:36:41;;;;;;;53.02;19.07;;;;;;;1.17;61.44;98114.52;2166189;82;21171;-76
2021/04/29 02:39:43;;;;;;;49.38;17.75;;;;;;;1.19;62.59;98118.34;2161149;82;21634;-76
2021/04/29 02:42:45;;;;;;;52.05;20.75;;;;;;;1.20;61.79;98123.92;2161513;82;21274;-77
2021/04/29 02:45:47;;;;;;;40.30;16.25;;;;;;;1.14;62.10;98126.27;2161116;82;21114;-77
2021/04/29 02:48:49;;;;;;;34.73;14.00;;;;;;;1.12;62.52;98125.91;2161364;82;21261;-77
2021/04/29 02:51:51;;;;;;;33.70;14.95;;;;;;;1.12;62.91;98119.02;2161130;82;21151;-77
2021/04/29 02:54:53;;;;;;;40.67;15.25;;;;;;;1.06;63.01;98122.25;2161403;82;21285;-76
2021/04/29 02:57:56;;;;;;;35.48;13.45;;;;;;;0.97;63.03;98117.78;2160783;82;21107;-77
2021/04/29 03:00:58;;;;;;;42.50;14.85;;;;;;;1.01;63.55;98121.95;2161357;82;21261;-77
2021/04/29 03:04:00;;;;;;;39.40;14.75;;;;;;;1.04;63.63;98126.18;2161104;82;21103;-76
2021/04/29 03:07:02;;;;;;;38.42;15.78;;;;;;;1.10;63.30;98122.55;2161218;82;21300;-77
2021/04/29 03:10:04;;;;;;;39.20;14.80;;;;;;;1.20;63.66;98121.33;2161103;82;21162;-76
2021/04/29 03:13:05;;;;;;;36.03;15.15;;;;;;;1.27;64.33;98117.64;2161106;82;21147;-76
2021/04/29 03:16:07;;;;;;;36.20;14.87;;;;;;;1.31;64.09;98128.27;2161046;82;21163;-77
2021/04/29 03:19:09;;;;;;;37.73;14.87;;;;;;;1.34;64.45;98129.45;2161184;82;21285;-75
2021/04/29 03:22:11;;;;;;;41.13;15.55;;;;;;;1.44;64.57;98123.95;2161100;82;21132;-74
2021/04/29 03:25:13;;;;;;;49.03;19.02;;;;;;;1.77;64.99;98124.50;2161121;82;21734;-78
2021/04/29 03:28:15;;;;;;;40.92;16.25;;;;;;;1.77;64.99;98124.50;2161113;82;21527;-70
2021/04/29 03:31:17;;;;;;;40.40;16.60;;;;;;;1.93;65.74;98123.95;2161436;82;21294;-69
2021/04/29 03:34:19;;;;;;;44.30;18.25;;;;;;;1.99;65.39;98127.59;2161035;82;21202;-69
2021/04/29 03:37:21;;;;;;;37.42;14.28;;;;;;;2.18;65.76;98127.27;2161035;81;21187;-71
2021/04/29 03:40:23;;;;;;;35.10;15.55;;;;;;;2.38;64.48;98126.51;2161196;82;21277;-74
2021/04/29 03:43:25;;;;;;;40.73;17.95;;;;;;;2.37;64.99;98126.56;2161089;82;21116;-71
2021/04/29 03:46:27;;;;;;;39.40;17.00;;;;;;;2.44;64.98;98128.02;2161383;82;21312;-71
2021/04/29 03:49:29;;;;;;;41.53;17.60;;;;;;;2.48;64.66;98120.98;2161192;82;21267;-72
2021/04/29 03:52:31;;;;;;;39.18;16.85;;;;;;;2.58;64.82;98124.43;2161034;82;21159;-70
2021/04/29 03:55:34;;;;;;;38.63;16.27;;;;;;;2.71;65.38;98117.02;2160889;82;21662;-68
2021/04/29 03:58:36;;;;;;;38.05;16.40;;;;;;;2.87;65.14;98116.40;2161064;82;21563;-69
2021/04/29 04:01:38;;;;;;;40.35;16.32;;;;;;;2.97;65.93;98111.69;2161141;82;21603;-72
2021/04/29 04:04:40;;;;;;;41.42;17.90;;;;;;;3.13;65.72;98111.42;2161267;82;21285;-72
2021/04/29 04:07:42;;;;;;;42.48;16.97;;;;;;;3.30;65.44;98109.41;2161342;82;21265;-72
2021/04/29 04:10:44;;;;;;;35.25;16.75;;;;;;;3.54;65.50;98107.52;2161057;82;21119;-72
2021/04/29 04:13:46;;;;;;;49.90;19.90;;;;;;;3.79;65.07;98104.69;2161384;82;21305;-72
2021/04/29 04:16:48;;;;;;;43.15;17.35;;;;;;;3.93;64.90;98105.34;2140114;82;21270;-79
2021/04/29 04:19:50;;;;;;;38.75;16.55;;;;;;;4.08;64.84;98105.11;2161018;82;21143;-80
2021/04/29 04:22:52;;;;;;;36.85;15.20;;;;;;;4.23;64.65;98105.31;2161064;82;21587;-72
2021/04/29 04:25:54;;;;;;;42.17;16.73;;;;;;;4.39;64.52;98102.84;2161032;82;21567;-72
2021/04/29 04:28:56;;;;;;;35.95;15.55;;;;;;;4.63;64.41;98089.14;2161042;82;21107;-73
2021/04/29 04:31:58;;;;;;;36.88;15.68;;;;;;;4.86;64.64;98093.20;2161389;82;21286;-73
2021/04/29 04:35:00;;;;;;;37.40;15.58;;;;;;;5.14;65.06;98099.62;2161091;82;21203;-73
2021/04/29 04:38:02;;;;;;;33.63;15.68;;;;;;;5.54;64.51;98098.41;2175681;81;21756;-73
2021/04/29 04:41:04;;;;;;;39.53;18.02;;;;;;;5.97;64.30;98095.33;2178822;81;21302;-73
2021/04/29 04:44:06;;;;;;;37.40;16.52;;;;;;;6.37;63.79;98098.36;2178420;81;21126;-74
2021/04/29 04:47:08;;;;;;;37.65;16.77;;;;;;;6.76;63.01;98098.81;2178758;82;21150;-74
2021/04/29 04:50:10;;;;;;;36.50;16.85;;;;;;;7.18;62.10;98097.73;2178479;81;21296;-75
2021/04/29 04:53:12;;;;;;;33.08;14.60;;;;;;;7.52;61.88;98097.87;2151180;82;21276;-75
2021/04/29 04:56:14;;;;;;;37.58;15.53;;;;;;;7.59;60.86;98095.27;2178437;81;21273;-75
2021/04/29 04:59:16;;;;;;;36.23;15.58;;;;;;;7.68;60.43;98103.00;2178475;81;21268;-75
2021/04/29 05:02:18;;;;;;;35.48;16.07;;;;;;;7.78;60.28;98101.98;2178559;82;21605;-75
2021/04/29 05:05:21;;;;;;;42.60;18.20;;;;;;;7.85;60.18;98096.75;2178544;81;21709;-74
2021/04/29 05:08:23;;;;;;;36.88;15.55;;;;;;;7.98;60.16;98093.75;2178335;81;21760;-74
2021/04/29 05:11:25;;;;;;;38.83;16.40;;;;;;;8.05;59.89;98098.13;2178530;81;21150;-75
2021/04/29 05:14:27;;;;;;;37.25;15.58;;;;;;;8.09;59.67;98094.87;2178596;81;21179;-75
2021/04/29 05:17:29;;;;;;;31.70;13.45;;;;;;;8.17;59.32;98091.77;2178602;81;21312;-74
2021/04/29 05:20:31;;;;;;;30.48;13.78;;;;;;;8.26;59.51;98090.73;2178618;81;21288;-73
2021/04/29 05:23:33;;;;;;;33.67;14.68;;;;;;;8.39;59.28;98086.88;2178629;81;21284;-73
2021/04/29 05:26:35;;;;;;;30.70;13.90;;;;;;;8.59;59.05;98076.48;2178926;81;21142;-74
2021/04/29 05:29:37;;;;;;;34.75;15.35;;;;;;;8.81;58.70;98078.52;2178607;81;21594;-73
2021/04/29 05:32:39;;;;;;;38.85;16.87;;;;;;;9.00;58.63;98084.67;2178981;81;21146;-74
2021/04/29 05:35:41;;;;;;;33.92;15.48;;;;;;;9.20;57.91;98077.28;2178566;81;21301;-74
2021/04/29 05:38:44;;;;;;;37.95;14.40;;;;;;;9.50;57.60;98078.77;2178414;81;21611;-74
2021/04/29 05:41:46;;;;;;;34.27;15.18;;;;;;;9.89;56.96;98079.56;2178544;81;21714;-74
2021/04/29 05:44:48;;;;;;;35.33;15.00;;;;;;;10.08;56.33;98084.81;2178588;81;21741;-75
2021/04/29 05:47:50;;;;;;;32.80;15.18;;;;;;;10.28;56.09;98088.64;2178951;81;21142;-75
2021/04/29 05:50:52;;;;;;;32.13;14.00;;;;;;;10.50;56.09;98082.70;2178612;81;21264;-75
2021/04/29 05:53:54;;;;;;;33.33;13.45;;;;;;;10.78;55.34;98078.09;2178628;82;21706;-75
2021/04/29 05:56:56;;;;;;;29.63;13.00;;;;;;;11.30;54.82;98078.59;2178570;81;21716;-76
2021/04/29 05:59:57;;;;;;;33.60;14.13;;;;;;;11.55;53.39;98070.98;2178611;81;21162;-79
2021/04/29 06:02:59;;;;;;;32.20;13.68;;;;;;;11.71;53.85;98072.80;2178569;81;21146;-76
2021/04/29 06:06:01;;;;;;;31.35;13.80;;;;;;;12.15;53.50;98065.50;2178919;81;21146;-76
2021/04/29 06:09:03;;;;;;;33.15;14.75;;;;;;;12.42;52.50;98067.72;2178782;81;21288;-76
2021/04/29 06:12:06;;;;;;;27.82;12.60;;;;;;;12.50;52.11;98054.80;2178566;81;21269;-76
2021/04/29 06:15:08;;;;;;;28.15;11.88;;;;;;;12.59;51.43;98046.14;2178987;81;21288;-77
2021/04/29 06:18:10;;;;;;;33.23;13.45;;;;;;;12.61;51.21;98056.53;2178586;82;21269;-79
2021/04/29 06:21:12;;;;;;;30.17;13.43;;;;;;;12.71;50.98;98056.13;2150788;82;21158;-79
2021/04/29 06:24:15;;;;;;;31.48;12.82;;;;;;;13.02;50.88;98054.10;2178511;81;21733;-77
2021/04/29 06:27:17;;;;;;;35.00;15.25;;;;;;;13.39;49.86;98051.86;2178562;81;21737;-78
2021/04/29 06:30:19;;;;;;;29.67;12.40;;;;;;;13.50;49.06;98048.30;2178568;81;21276;-78
2021/04/29 06:33:23;;;;;;;;;;;;;;;13.45;48.95;98040.80;2181116;81;21732;-77
2021/04/29 06:36:25;;;;;;;29.50;12.23;;;;;;;13.58;47.41;98040.59;2176261;82;20230;-77
2021/04/29 06:39:27;;;;;;;32.45;13.13;;;;;;;13.78;48.26;98052.05;2140235;82;21261;-77
2021/04/29 06:42:29;;;;;;;27.87;12.00;;;;;;;13.77;48.40;98054.81;2161136;82;21741;-78
2021/04/29 06:45:31;;;;;;;30.00;12.98;;;;;;;13.75;47.89;98054.95;2161114;82;21183;-77
2021/04/29 06:48:33;;;;;;;30.00;12.55;;;;;;;13.78;47.66;98053.85;2161137;82;21139;-77
2021/04/29 06:51:35;;;;;;;29.77;12.07;;;;;;;13.81;47.59;98057.05;2161219;82;21292;-77
2021/04/29 06:54:37;;;;;;;28.00;11.70;;;;;;;14.02;47.56;98056.98;2161065;82;21171;-78
2021/04/29 06:57:39;;;;;;;27.85;12.23;;;;;;;14.17;47.44;98055.29;2161469;82;21309;-78
2021/04/29 07:00:41;;;;;;;27.70;12.60;;;;;;;14.23;47.54;98054.73;2161384;82;21305;-78
2021/04/29 07:03:43;;;;;;;33.00;13.70;;;;;;;14.18;47.54;98055.65;2161338;82;21290;-78
2021/04/29 07:06:46;;;;;;;42.85;22.87;;;;;;;14.13;47.52;98049.44;2161111;82;21342;-77
2021/04/29 07:09:49;;;;;;;33.55;14.65;;;;;;;14.15;47.45;98047.98;2140041;82;21142;-78
2021/04/29 07:12:51;;;;;;;36.65;15.23;;;;;;;14.12;47.74;98057.02;2161459;82;21281;-77
2021/04/29 07:15:53;;;;;;;30.17;14.10;;;;;;;14.11;47.88;98050.07;2161035;82;21179;-77
2021/04/29 07:18:55;;;;;;;32.10;14.83;;;;;;;14.15;48.01;98054.58;2161180;82;21608;-77
2021/04/29 07:21:57;;;;;;;34.63;15.03;;;;;;;14.10;48.14;98049.71;2161084;82;21575;-77
2021/04/29 07:24:59;;;;;;;;;;;;;;;14.16;48.22;98054.93;2163539;82;21579;-79
2021/04/29 07:28:01;;;;;;;33.63;12.85;;;;;;;14.19;47.66;98046.28;2161577;82;20266;-79
2021/04/29 07:31:04;;;;;;;28.92;12.43;;;;;;;14.18;47.51;98052.52;2161162;82;21151;-77
2021/04/29 07:34:06;;;;;;;;;;;;;;;14.14;47.48;98046.33;2163481;82;21132;-79
2021/04/29 07:37:08;;;;;;;29.20;13.13;;;;;;;14.24;47.85;98048.97;2165722;81;20510;-77
2021/04/29 07:40:10;;;;;;;30.65;12.68;;;;;;;14.60;47.65;98041.41;2178498;81;21260;-79
2021/04/29 07:43:12;;;;;;;26.17;11.83;;;;;;;14.86;47.15;98041.21;2178466;82;21284;-77
2021/04/29 07:46:14;;;;;;;;;;;;;;;15.20;47.16;98041.23;2180924;81;21598;-78
2021/04/29 07:49:16;;;;;;;24.85;10.98;;;;;;;15.61;46.38;98039.67;2178465;82;20158;-78
2021/04/29 07:52:19;;;;;;;;;;;;;;;15.86;45.61;98032.44;2181423;82;21138;-78
2021/04/29 07:55:21;;;;;;;29.00;13.90;;;;;;;16.13;45.64;98033.39;2150591;82;20225;-78
2021/04/29 07:58:23;;;;;;;33.30;12.75;;;;;;;16.51;45.29;98035.45;2178461;81;21166;-79
2021/04/29 08:01:25;;;;;;;25.23;10.53;;;;;;;16.82;44.18;98028.94;2178369;81;21697;-79
2021/04/29 08:04:29;;;;;;;28.15;10.95;;;;;;;16.87;42.23;98023.53;2178455;81;21299;-78
2021/04/29 08:07:31;;;;;;;26.23;10.98;;;;;;;17.10;43.62;98026.55;2178458;81;21111;-78
2021/04/29 08:10:35;;;;;;;27.80;11.70;;;;;;;17.24;42.40;98015.03;2178455;81;21764;-78
2021/04/29 08:13:37;;;;;;;35.13;16.95;;;;;;;17.37;42.58;98019.92;2178322;81;21293;-78
2021/04/29 08:16:39;;;;;;;;;;;;;;;17.68;42.61;98016.78;2181035;81;21734;-78
2021/04/29 08:19:41;;;;;;;27.10;10.30;;;;;;;18.12;41.76;98017.98;2178767;82;20232;-78
2021/04/29 08:22:43;;;;;;;25.70;9.33;;;;;;;18.58;42.27;98017.59;2178490;81;21538;-78
2021/04/29 08:25:45;;;;;;;26.02;10.55;;;;;;;19.08;40.71;98017.10;2178414;81;21332;-78
2021/04/29 08:28:47;;;;;;;24.60;9.95;;;;;;;19.35;40.06;98010.58;2178558;81;21280;-78
2021/04/29 08:31:49;;;;;;;24.05;8.35;;;;;;;19.79;39.84;98005.34;2178480;81;21304;-78
2021/04/29 08:34:51;;;;;;;25.85;9.10;;;;;;;20.05;36.65;98001.88;2178392;81;21303;-78
2021/04/29 08:37:53;;;;;;;23.07;8.58;;;;;;;20.07;38.38;98003.88;2154669;81;21166;-78
2021/04/29 08:40:55;;;;;;;;;;;;;;;20.09;37.83;97998.38;2190626;81;21118;-78
2021/04/29 08:43:57;;;;;;;23.65;7.40;;;;;;;20.01;35.32;97991.28;2188167;81;20224;-78
2021/04/29 08:46:59;;;;;;;22.85;7.62;;;;;;;19.89;37.00;97994.81;2188171;81;21292;-78
2021/04/29 08:50:01;;;;;;;21.80;7.90;;;;;;;19.93;36.97;97986.50;2188305;81;21280;-78
2021/04/29 08:53:03;;;;;;;21.65;7.72;;;;;;;20.10;36.96;97989.41;2188293;81;21272;-78
2021/04/29 08:56:05;;;;;;;22.07;7.65;;;;;;;20.22;36.67;97985.84;2188201;81;21304;-78
2021/04/29 08:59:07;;;;;;;22.30;8.10;;;;;;;20.22;36.49;97987.98;2188397;81;21736;-78
2021/04/29 09:02:09;;;;;;;20.77;6.90;;;;;;;20.35;35.08;97979.93;2188154;81;21153;-78
2021/04/29 09:05:11;;;;;;;23.35;8.40;;;;;;;20.41;35.61;97976.06;2188406;81;21276;-78
2021/04/29 09:08:13;;;;;;;23.70;7.92;;;;;;;20.77;36.07;97967.98;2188312;81;21280;-78
2021/04/29 09:11:15;;;;;;;18.65;6.80;;;;;;;21.18;35.07;97964.13;2188296;81;21276;-78
2021/04/29 09:14:17;;;;;;;23.75;8.18;;;;;;;21.34;34.09;97962.59;2188581;81;21308;-78
2021/04/29 09:17:19;;;;;;;;;;;;;;;21.73;34.19;97955.34;2190775;81;21269;-78
2021/04/29 09:20:21;;;;;;;19.42;6.58;;;;;;;22.09;32.54;97946.00;2188277;81;20499;-78
2021/04/29 09:23:23;;;;;;;;;;;;;;;22.25;32.28;97950.27;2190711;81;21724;-78
2021/04/29 09:26:25;;;;;;;20.35;7.10;;;;;;;22.47;31.60;97952.48;2188624;81;20244;-78
2021/04/29 09:29:27;;;;;;;19.55;6.95;;;;;;;22.34;30.95;97948.37;2188150;81;21117;-78
2021/04/29 09:32:30;;;;;;;21.27;7.35;;;;;;;22.44;30.80;97948.02;2188273;81;21257;-77
2021/04/29 09:35:32;;;;;;;24.32;7.60;;;;;;;22.55;31.12;97938.16;2188099;81;21729;-78
2021/04/29 09:38:34;;;;;;;24.85;9.53;;;;;;;22.77;31.21;97944.33;2173029;81;21746;-78
2021/04/29 09:41:36;;;;;;;20.68;7.17;;;;;;;23.03;31.18;97936.69;2161073;82;21583;-77
2021/04/29 09:44:38;;;;;;;20.97;7.10;;;;;;;22.98;29.91;97929.25;2161035;82;21619;-77
2021/04/29 09:47:40;;;;;;;21.42;7.70;;;;;;;22.90;30.41;97923.55;2161274;82;21772;-77
2021/04/29 09:50:42;;;;;;;19.67;6.87;;;;;;;22.93;30.54;97913.80;2161109;82;21305;-77
2021/04/29 09:53:46;;;;;;;17.92;4.90;;;;;;;23.17;29.92;97913.05;2161332;82;21548;-77
2021/04/29 09:56:48;;;;;;;20.50;7.12;;;;;;;23.33;28.92;97917.25;2161125;82;21281;-77
2021/04/29 09:59:54;;;;;;;19.35;6.65;;;;;;;23.28;28.15;97909.01;2161370;82;21285;-77
2021/04/29 10:02:54;;;;;;;19.42;6.10;;;;;;;23.26;27.76;97901.67;2160948;82;21709;-77
2021/04/29 10:05:56;;;;;;;22.75;6.58;;;;;;;23.32;28.50;97893.69;2161097;82;21722;-77
2021/04/29 10:08:58;;;;;;;17.50;4.90;;;;;;;23.63;27.98;97896.91;2161098;82;21738;-77
2021/04/29 10:12:00;;;;;;;16.70;5.00;;;;;;;23.71;27.58;97895.41;2161044;82;21602;-77
2021/04/29 10:15:02;;;;;;;17.70;5.03;;;;;;;23.72;27.32;97887.70;2139998;82;21603;-77
2021/04/29 10:18:05;;;;;;;15.85;4.80;;;;;;;23.69;27.56;97884.06;2161078;82;21773;-77
2021/04/29 10:21:07;;;;;;;14.65;4.90;;;;;;;23.82;27.94;97888.13;2161236;82;21317;-77
2021/04/29 10:24:09;;;;;;;17.85;5.55;;;;;;;24.04;27.28;97891.50;2161217;82;21290;-77
2021/04/29 10:27:11;;;;;;;23.38;9.65;;;;;;;24.20;27.09;97876.90;2161032;82;21147;-77
2021/04/29 10:30:13;;;;;;;17.85;5.67;;;;;;;24.27;26.90;97890.31;2161154;82;21281;-78
2021/04/29 10:33:16;;;;;;;18.82;6.03;;;;;;;24.16;27.35;97876.98;2161338;82;21156;-76
2021/04/29 10:36:18;;;;;;;21.00;6.37;;;;;;;24.35;27.54;97872.70;2161212;82;21313;-76
2021/04/29 10:39:20;;;;;;;22.00;7.28;;;;;;;24.53;27.22;97873.41;2168184;81;21738;-76
2021/04/29 10:42:22;;;;;;;18.85;6.30;;;;;;;24.88;28.00;97869.20;2171404;82;21134;-77
2021/04/29 10:45:24;;;;;;;18.30;5.92;;;;;;;25.03;27.73;97866.27;2171085;82;21261;-76
2021/04/29 10:48:27;;;;;;;19.12;6.25;;;;;;;25.07;27.38;97865.34;2141577;82;21305;-76
2021/04/29 10:51:29;;;;;;;19.60;6.53;;;;;;;25.28;27.69;97862.08;2171161;82;21269;-76
2021/04/29 10:54:32;;;;;;;18.00;6.17;;;;;;;25.46;27.33;97854.20;2171180;82;21741;-76
2021/04/29 10:57:34;;;;;;;21.68;6.35;;;;;;;25.34;27.41;97867.96;2171155;82;21281;-76
2021/04/29 11:00:36;;;;;;;19.85;6.22;;;;;;;25.19;27.91;97863.64;2171137;82;21312;-76
2021/04/29 11:03:38;;;;;;;21.42;6.90;;;;;;;24.92;27.97;97872.27;2171125;82;21135;-76
2021/04/29 11:06:40;;;;;;;20.35;6.75;;;;;;;24.43;28.40;97870.84;2171130;82;21305;-78
2021/04/29 11:09:42;;;;;;;18.73;6.08;;;;;;;24.09;28.53;97872.66;2171396;82;21284;-77
2021/04/29 11:12:44;;;;;;;17.77;6.05;;;;;;;24.17;28.85;97861.23;2171096;82;21277;-77
2021/04/29 11:15:46;;;;;;;18.48;6.12;;;;;;;24.52;29.36;97853.52;2171164;82;21288;-77
2021/04/29 11:18:48;;;;;;;20.60;7.03;;;;;;;24.78;29.19;97854.56;2171134;82;21150;-77
2021/04/29 11:21:50;;;;;;;18.98;6.22;;;;;;;24.87;28.50;97864.05;2171150;82;21265;-77
2021/04/29 11:24:52;;;;;;;18.73;6.37;;;;;;;24.88;28.51;97858.97;2141606;82;21269;-77
2021/04/29 11:27:54;;;;;;;18.50;5.87;;;;;;;24.72;27.94;97860.23;2171113;82;21126;-76
2021/04/29 11:30:56;;;;;;;21.62;6.30;;;;;;;24.64;28.06;97852.41;2171236;82;21713;-77
2021/04/29 11:33:58;;;;;;;17.42;5.75;;;;;;;24.41;28.38;97860.34;2171067;82;21705;-77
2021/04/29 11:37:00;;;;;;;21.42;6.00;;;;;;;24.34;28.56;97859.52;2171438;82;21318;-78
2021/04/29 11:40:02;;;;;;;19.30;5.83;;;;;;;24.46;29.68;97852.48;2162221;81;21294;-78
2021/04/29 11:43:05;;;;;;;17.48;5.47;;;;;;;24.68;28.95;97853.14;2161295;82;21297;-77
2021/04/29 11:46:07;;;;;;;18.70;5.90;;;;;;;25.06;28.42;97856.98;2161013;82;21289;-76
2021/04/29 11:49:09;;;;;;;20.37;6.00;;;;;;;25.27;28.69;97855.05;2160947;82;21143;-76
2021/04/29 11:52:11;;;;;;;18.02;4.60;;;;;;;25.37;27.73;97858.14;2161066;82;21152;-76
2021/04/29 11:55:13;;;;;;;17.52;4.97;;;;;;;25.39;24.90;97851.53;2160900;82;21643;-76
2021/04/29 11:58:15;;;;;;;19.15;5.20;;;;;;;24.21;27.66;97853.63;2160946;82;21143;-76
2021/04/29 12:01:17;;;;;;;16.50;4.60;;;;;;;23.70;28.20;97863.81;2160947;82;21609;-76
2021/04/29 12:04:19;;;;;;;19.00;4.62;;;;;;;23.78;28.93;97862.79;2161153;82;21721;-76
2021/04/29 12:07:21;;;;;;;20.62;4.90;;;;;;;23.80;28.13;97858.57;2161116;82;21116;-78
2021/04/29 12:10:23;;;;;;;19.57;5.12;;;;;;;23.39;28.21;97848.26;2161039;82;21127;-76
2021/04/29 12:13:25;;;;;;;16.95;4.53;;;;;;;23.21;28.75;97860.81;2160996;82;21291;-77
2021/04/29 12:16:29;;;;;;;16.40;4.70;;;;;;;23.01;29.84;97854.84;2139969;82;21270;-76
2021/04/29 12:19:31;;;;;;;19.30;5.70;;;;;;;22.47;29.98;97858.17;2161057;82;21128;-76
2021/04/29 12:22:33;;;;;;;17.07;5.15;;;;;;;22.33;29.99;97856.41;2161323;82;21706;-76
2021/04/29 12:25:35;;;;;;;17.50;5.17;;;;;;;22.12;30.53;97844.19;2161117;82;21293;-76
2021/04/29 12:28:38;;;;;;;17.70;5.55;;;;;;;22.04;30.70;97847.46;2161222;82;21594;-76
2021/04/29 12:31:40;;;;;;;18.15;5.50;;;;;;;22.01;30.06;97850.52;2161142;82;21274;-76
2021/04/29 12:34:42;;;;;;;19.02;5.33;;;;;;;21.89;32.30;97843.53;2161331;82;21151;-76
2021/04/29 12:37:44;;;;;;;20.82;5.90;;;;;;;22.06;31.96;97850.78;2161470;82;21281;-76
2021/04/29 12:40:46;;;;;;;21.87;5.70;;;;;;;22.10;32.27;97851.55;2177669;81;21293;-76
2021/04/29 12:43:47;;;;;;;18.12;5.55;;;;;;;22.25;31.63;97847.97;2177609;82;21309;-77
2021/04/29 12:46:49;;;;;;;19.85;5.60;;;;;;;22.31;31.75;97841.85;2177534;82;21301;-76
2021/04/29 12:49:52;;;;;;;19.55;5.33;;;;;;;22.46;31.87;97837.80;2177549;82;21134;-76
2021/04/29 12:52:59;;;;;;;20.32;5.80;;;;;;;22.78;31.90;97834.22;2177512;82;21746;-76
2021/04/29 12:55:58;;;;;;;17.27;5.10;;;;;;;23.38;31.20;97831.06;2176777;82;21295;-76
2021/04/29 12:59:00;;;;;;;18.48;5.65;;;;;;;24.12;31.53;97820.87;2177624;82;21698;-76
2021/04/29 13:02:02;;;;;;;18.65;6.08;;;;;;;24.32;31.13;97820.87;2177634;82;21281;-76
2021/04/29 13:05:04;;;;;;;20.10;5.87;;;;;;;24.05;31.36;97825.39;2177489;82;21575;-76
2021/04/29 13:08:06;;;;;;;17.45;5.65;;;;;;;24.27;31.25;97819.84;2177514;82;21329;-76
2021/04/29 13:11:08;;;;;;;22.82;7.12;;;;;;;24.48;32.04;97820.13;2177521;82;21273;-77
2021/04/29 13:14:10;;;;;;;19.15;6.25;;;;;;;24.31;32.55;97815.20;2177486;82;21305;-77
2021/04/29 13:17:12;;;;;;;21.75;7.40;;;;;;;24.18;30.40;97817.36;2177622;82;21273;-77
2021/04/29 13:20:16;;;;;;;23.77;7.45;;;;;;;24.01;32.39;97812.91;2177502;82;21297;-76
2021/04/29 13:23:20;;;;;;;23.12;8.28;;;;;;;24.54;30.92;97816.11;2177464;82;21300;-76
2021/04/29 13:26:22;;;;;;;22.22;7.83;;;;;;;23.96;31.74;97823.92;2177484;82;21292;-78
2021/04/29 13:29:24;;;;;;;22.60;8.20;;;;;;;23.42;32.27;97824.27;2177542;82;21296;-77
2021/04/29 13:32:28;;;;;;;30.02;11.93;;;;;;;23.10;32.50;97819.89;2177436;82;21748;-77
2021/04/29 13:35:30;;;;;;;26.55;9.30;;;;;;;22.89;33.72;97820.30;2177418;82;21300;-77
2021/04/29 13:38:32;;;;;;;26.27;9.80;;;;;;;22.70;34.12;97821.00;2174499;82;21314;-77
2021/04/29 13:41:34;;;;;;;25.82;9.18;;;;;;;22.17;34.79;97810.71;2161085;82;21293;-76
2021/04/29 13:44:36;;;;;;;26.12;8.30;;;;;;;22.54;34.79;97812.29;2161105;82;21725;-76
2021/04/29 13:47:38;;;;;;;20.60;6.30;;;;;;;23.34;34.46;97809.23;2161059;82;21579;-76
2021/04/29 13:50:40;;;;;;;22.73;7.20;;;;;;;23.63;32.78;97804.08;2161067;82;21107;-76
2021/04/29 13:53:42;;;;;;;24.57;6.47;;;;;;;23.39;33.49;97801.93;2161376;82;21269;-76
2021/04/29 13:56:44;;;;;;;24.43;6.60;;;;;;;23.26;33.92;97796.86;2161016;82;21278;-76
2021/04/29 13:59:46;;;;;;;21.50;6.67;;;;;;;23.26;33.19;97792.00;2161858;82;21241;-75
2021/04/29 14:02:48;;;;;;;24.25;7.83;;;;;;;22.52;34.45;97805.48;2161055;82;21301;-76
2021/04/29 14:05:50;;;;;;;22.73;7.37;;;;;;;22.41;35.04;97788.98;2161017;82;21278;-76
2021/04/29 14:08:53;;;;;;;26.23;8.33;;;;;;;22.18;35.47;97809.70;2161055;82;21099;-78